Time;durP1;ratioP1;P1;durP2;ratioP2;P2;SDS_P1;SDS_P2;PMS_P1;PMS_P2;Temp;Humidity;BMP_temperature;BMP_pressure;BME280_temperature;BME280_humidity;BME280_pressure;Samples;Min_cycle;Max_cycle;Signal;HPM_P1;HPM_P2
2022/03/11 00:02:21;;;;;;;29.40;23.45;;;2.90;99.90;;;;;;5024589;28;20021;-75
2022/03/11 00:04:47;;;;;;;29.40;24.42;;;2.90;99.90;;;;;;5022844;28;20025;-75
2022/03/11 00:07:14;;;;;;;29.65;23.98;;;2.90;99.90;;;;;;5032385;28;20017;-75
2022/03/11 00:09:40;;;;;;;27.98;22.67;;;2.90;99.90;;;;;;5024061;28;20036;-74
2022/03/11 00:12:07;;;;;;;28.63;23.45;;;2.90;99.90;;;;;;5023815;28;20439;-74
2022/03/11 00:14:33;;;;;;;29.65;23.50;;;2.90;99.90;;;;;;5029264;28;20022;-74
2022/03/11 00:16:59;;;;;;;27.65;22.33;;;2.90;99.90;;;;;;5021567;28;20034;-75
2022/03/11 00:19:24;;;;;;;24.80;21.48;;;2.90;99.90;;;;;;5023954;28;20215;-75
2022/03/11 00:21:50;;;;;;;26.33;21.88;;;2.80;99.90;;;;;;5023737;28;20024;-75
2022/03/11 00:24:15;;;;;;;24.63;20.65;;;2.80;99.90;;;;;;5027791;28;20526;-75
2022/03/11 00:26:41;;;;;;;26.50;21.67;;;2.80;99.90;;;;;;5019073;28;20025;-74
2022/03/11 00:29:07;;;;;;;24.02;20.25;;;2.70;99.90;;;;;;5028264;28;20400;-75
2022/03/11 00:31:32;;;;;;;26.15;20.98;;;2.70;99.90;;;;;;5024269;28;20061;-74
2022/03/11 00:33:59;;;;;;;25.88;21.20;;;2.60;99.90;;;;;;5022742;28;20048;-74
2022/03/11 00:36:25;;;;;;;25.42;21.45;;;2.50;99.90;;;;;;5017273;28;20044;-75
2022/03/11 00:38:50;;;;;;;25.02;21.08;;;2.50;99.90;;;;;;5022408;28;20045;-74
2022/03/11 00:41:16;;;;;;;25.30;20.92;;;2.60;99.90;;;;;;5016441;28;20021;-75
2022/03/11 00:43:42;;;;;;;25.15;20.52;;;2.50;99.90;;;;;;5015480;28;20029;-75
2022/03/11 00:46:08;;;;;;;23.23;19.27;;;2.40;99.90;;;;;;5022489;28;20476;-74
2022/03/11 00:48:33;;;;;;;20.95;18.20;;;2.40;99.90;;;;;;5030451;28;20083;-74
2022/03/11 00:50:59;;;;;;;22.65;18.75;;;2.40;99.90;;;;;;5030596;28;20048;-75
2022/03/11 00:53:25;;;;;;;23.45;19.13;;;2.30;99.90;;;;;;5020198;28;20554;-75
2022/03/11 00:55:50;;;;;;;22.65;18.42;;;2.30;99.90;;;;;;5020045;28;20017;-76
2022/03/11 00:58:16;;;;;;;21.92;18.15;;;2.20;99.90;;;;;;5028130;28;20076;-74
2022/03/11 01:00:42;;;;;;;23.65;18.70;;;2.30;99.90;;;;;;5019317;28;20472;-75
2022/03/11 01:03:07;;;;;;;20.92;18.17;;;2.30;99.90;;;;;;5026099;28;20021;-75
2022/03/11 01:05:33;;;;;;;20.77;17.70;;;2.20;99.90;;;;;;5020069;28;20566;-75
2022/03/11 01:07:59;;;;;;;19.73;16.92;;;2.20;99.90;;;;;;5025039;28;20095;-74
2022/03/11 01:10:24;;;;;;;20.50;16.55;;;2.20;99.90;;;;;;5023322;28;20496;-74
2022/03/11 01:12:50;;;;;;;19.33;16.17;;;2.20;99.90;;;;;;5025819;28;20537;-74
2022/03/11 01:15:15;;;;;;;20.70;17.05;;;2.10;99.90;;;;;;5020774;28;20510;-74
2022/03/11 01:17:41;;;;;;;20.35;17.23;;;2.10;99.90;;;;;;5023131;28;20018;-74
2022/03/11 01:20:07;;;;;;;18.52;15.90;;;2.00;99.90;;;;;;5030038;28;20025;-75
2022/03/11 01:22:33;;;;;;;18.13;15.82;;;2.00;99.90;;;;;;5021929;28;20064;-74
2022/03/11 01:24:59;;;;;;;17.60;15.35;;;1.90;99.80;;;;;;5021976;28;20105;-75
2022/03/11 01:27:25;;;;;;;17.42;15.50;;;2.10;99.00;;;;;;5023151;28;20131;-76
2022/03/11 01:29:51;;;;;;;18.30;15.00;;;1.90;98.70;;;;;;5024128;28;20121;-76
2022/03/11 01:32:16;;;;;;;18.85;16.33;;;1.90;99.00;;;;;;5022269;28;20026;-75
2022/03/11 01:34:42;;;;;;;17.63;14.65;;;1.70;99.60;;;;;;5022308;28;20018;-76
2022/03/11 01:37:08;;;;;;;17.42;15.18;;;1.60;99.80;;;;;;5032837;28;20033;-76
2022/03/11 01:39:33;;;;;;;17.27;13.88;;;1.60;99.20;;;;;;5035033;28;20021;-76
2022/03/11 01:41:59;;;;;;;18.63;13.90;;;1.70;98.50;;;;;;5032619;28;20029;-76
2022/03/11 01:44:26;;;;;;;15.55;12.77;;;1.60;98.20;;;;;;5023380;28;20123;-76
2022/03/11 01:46:52;;;;;;;16.52;13.45;;;1.60;97.70;;;;;;5027655;28;20040;-74
2022/03/11 01:49:18;;;;;;;14.60;12.60;;;1.60;97.50;;;;;;5017004;28;20037;-75
2022/03/11 01:51:44;;;;;;;16.25;12.45;;;1.60;97.30;;;;;;5021838;28;20032;-75
2022/03/11 01:54:11;;;;;;;15.95;11.52;;;1.60;97.00;;;;;;5015935;28;20104;-75
2022/03/11 01:56:37;;;;;;;13.45;11.45;;;1.60;96.40;;;;;;5023382;28;20079;-74
2022/03/11 01:59:04;;;;;;;14.43;11.63;;;1.50;96.50;;;;;;5024959;28;20057;-74
2022/03/11 02:01:29;;;;;;;14.45;11.70;;;1.60;96.70;;;;;;5021201;28;20041;-75
2022/03/11 02:03:57;;;;;;;13.80;11.20;;;1.50;96.00;;;;;;5029989;28;20060;-75
2022/03/11 02:06:23;;;;;;;13.80;11.60;;;1.40;95.70;;;;;;5023063;28;20014;-75
2022/03/11 02:08:49;;;;;;;14.63;11.00;;;1.40;95.60;;;;;;5030701;28;20044;-75
2022/03/11 02:11:15;;;;;;;12.73;10.73;;;1.40;95.50;;;;;;5020565;28;20084;-75
2022/03/11 02:13:55;;;;;;;13.40;11.43;;;1.40;95.60;;;;;;5028096;28;20030;-74
2022/03/11 02:16:26;;;;;;;12.85;10.60;;;1.40;95.60;;;;;;5027850;28;20480;-73
2022/03/11 02:18:52;;;;;;;14.27;11.25;;;1.30;95.00;;;;;;5023487;28;20067;-75
2022/03/11 02:21:19;;;;;;;13.05;10.60;;;1.30;95.30;;;;;;5021061;28;20468;-74
2022/03/11 02:23:48;;;;;;;12.48;11.10;;;1.30;95.70;;;;;;5024277;28;20033;-75
2022/03/11 02:26:15;;;;;;;13.77;10.90;;;1.20;95.00;;;;;;5029078;28;20017;-73
2022/03/11 02:28:42;;;;;;;13.93;10.88;;;1.20;95.30;;;;;;5034270;28;20032;-74
2022/03/11 02:31:08;;;;;;;11.70;10.05;;;1.20;95.30;;;;;;5020543;28;20041;-73
2022/03/11 02:33:33;;;;;;;13.52;10.98;;;1.10;95.00;;;;;;5034181;28;20037;-73
2022/03/11 02:35:59;;;;;;;12.98;10.57;;;1.10;95.00;;;;;;5019706;28;20029;-74
2022/03/11 02:38:25;;;;;;;13.05;10.60;;;1.00;95.10;;;;;;5024059;28;20022;-73
2022/03/11 02:40:51;;;;;;;12.57;10.52;;;1.10;94.40;;;;;;5023513;28;20018;-73
2022/03/11 02:43:17;;;;;;;11.85;9.60;;;1.10;94.50;;;;;;5022363;28;20422;-74
2022/03/11 02:45:43;;;;;;;11.95;10.32;;;1.00;94.40;;;;;;5016851;28;20040;-74
2022/03/11 02:48:08;;;;;;;12.15;10.25;;;1.00;94.60;;;;;;5022068;28;20436;-75
2022/03/11 02:50:34;;;;;;;12.98;10.32;;;1.00;94.20;;;;;;5015111;28;20113;-74
2022/03/11 02:52:59;;;;;;;12.30;10.57;;;1.00;94.30;;;;;;5032513;28;20109;-74
2022/03/11 02:55:25;;;;;;;14.02;10.52;;;0.90;94.20;;;;;;5017811;28;20037;-75
2022/03/11 02:57:50;;;;;;;11.27;10.00;;;0.90;94.10;;;;;;5023140;28;20026;-74
2022/03/11 03:00:16;;;;;;;11.35;10.02;;;0.90;94.10;;;;;;5019143;28;20659;-74
2022/03/11 03:02:42;;;;;;;13.65;10.05;;;0.90;94.30;;;;;;5023068;28;20031;-74
2022/03/11 03:05:08;;;;;;;13.32;9.82;;;0.90;93.90;;;;;;5028213;28;20036;-74
2022/03/11 03:07:34;;;;;;;12.82;10.50;;;0.80;93.80;;;;;;5016860;28;20492;-76
2022/03/11 03:09:59;;;;;;;12.30;10.55;;;0.80;93.80;;;;;;5018688;28;20044;-75
2022/03/11 03:12:26;;;;;;;14.15;10.55;;;0.70;94.20;;;;;;5012188;28;20030;-74
2022/03/11 03:14:52;;;;;;;12.38;10.02;;;0.70;94.10;;;;;;5015024;28;20045;-74
2022/03/11 03:17:21;;;;;;;12.98;9.73;;;0.70;93.80;;;;;;5023755;28;20064;-74
2022/03/11 03:19:47;;;;;;;13.05;10.07;;;0.70;94.00;;;;;;5030135;28;20018;-74
2022/03/11 03:22:13;;;;;;;11.52;9.73;;;0.70;94.10;;;;;;5021840;28;20025;-74
2022/03/11 03:24:39;;;;;;;12.25;9.38;;;0.60;93.90;;;;;;5026656;28;20034;-74
2022/03/11 03:27:04;;;;;;;11.48;9.50;;;0.60;94.00;;;;;;5013398;28;20093;-73
2022/03/11 03:29:30;;;;;;;11.40;9.52;;;0.60;93.60;;;;;;5031909;28;20022;-73
2022/03/11 03:31:59;;;;;;;12.52;9.48;;;0.60;93.70;;;;;;5013106;28;20076;-72
2022/03/11 03:34:29;;;;;;;12.57;9.45;;;0.50;93.70;;;;;;5013317;28;20026;-73
2022/03/11 03:36:56;;;;;;;13.15;9.85;;;0.50;93.30;;;;;;5023574;28;20083;-73
2022/03/11 03:39:21;;;;;;;11.13;9.07;;;0.50;93.70;;;;;;5019553;28;20013;-73
2022/03/11 03:41:47;;;;;;;10.13;8.90;;;0.50;93.80;;;;;;5021067;28;20393;-73
2022/03/11 03:44:12;;;;;;;11.88;9.40;;;0.40;93.40;;;;;;5011795;28;20021;-73
2022/03/11 03:46:38;;;;;;;11.80;9.25;;;0.40;93.70;;;;;;5012993;28;20034;-73
2022/03/11 03:49:03;;;;;;;11.70;10.02;;;0.30;93.20;;;;;;5026464;28;20017;-76
2022/03/11 03:51:29;;;;;;;11.43;9.25;;;0.30;93.50;;;;;;5022048;28;20013;-76
2022/03/11 03:53:54;;;;;;;12.32;9.68;;;0.20;93.70;;;;;;5018120;28;20055;-74
2022/03/11 03:56:20;;;;;;;11.93;9.40;;;0.10;93.80;;;;;;5022889;28;20030;-75
2022/03/11 03:58:45;;;;;;;11.55;9.63;;;0.10;93.40;;;;;;5025902;28;20038;-75
2022/03/11 04:01:11;;;;;;;10.93;9.05;;;0.00;94.00;;;;;;5022405;28;20064;-73
2022/03/11 04:03:36;;;;;;;12.27;8.68;;;-0.20;94.80;;;;;;5019247;28;20100;-74
2022/03/11 04:06:02;;;;;;;10.57;8.75;;;-0.40;95.00;;;;;;5022669;28;20076;-76
2022/03/11 04:08:30;;;;;;;11.02;9.32;;;-0.30;94.50;;;;;;5045158;28;20033;-77
2022/03/11 04:10:55;;;;;;;10.45;8.77;;;-0.20;94.50;;;;;;5048215;28;20087;-75
2022/03/11 04:13:21;;;;;;;11.80;8.95;;;-0.40;94.80;;;;;;5017754;28;20038;-75
2022/03/11 04:15:46;;;;;;;9.85;8.27;;;-0.30;94.40;;;;;;5023516;28;20049;-76
2022/03/11 04:18:12;;;;;;;9.90;8.63;;;-0.20;94.30;;;;;;5036871;28;20033;-76
2022/03/11 04:20:37;;;;;;;10.98;8.70;;;-0.10;93.70;;;;;;5021441;28;20032;-76
2022/03/11 04:23:03;;;;;;;12.65;8.27;;;-0.40;94.30;;;;;;5014956;28;20507;-75
2022/03/11 04:25:28;;;;;;;8.98;8.05;;;-0.40;94.30;;;;;;5012471;28;20519;-75
2022/03/11 04:27:54;;;;;;;11.10;8.82;;;-0.30;94.20;;;;;;5028535;28;20029;-74
2022/03/11 04:30:20;;;;;;;11.20;9.60;;;-0.40;94.20;;;;;;5047128;28;20044;-74
2022/03/11 04:32:45;;;;;;;12.35;9.50;;;-0.50;94.30;;;;;;5030661;28;20048;-74
2022/03/11 04:35:11;;;;;;;14.80;12.15;;;-0.60;94.30;;;;;;5031900;28;20098;-73
2022/03/11 04:37:36;;;;;;;13.43;10.25;;;-0.60;94.50;;;;;;5018685;28;20036;-74
2022/03/11 04:40:04;;;;;;;13.00;9.82;;;-0.70;95.20;;;;;;5023188;28;20025;-75
2022/03/11 04:42:29;;;;;;;12.40;10.32;;;-0.80;95.90;;;;;;5027834;28;20076;-75
2022/03/11 04:44:55;;;;;;;12.50;11.18;;;-0.90;95.90;;;;;;5012246;28;20033;-74
2022/03/11 04:47:20;;;;;;;11.38;9.93;;;-1.00;96.30;;;;;;5023985;28;20030;-74
2022/03/11 04:49:46;;;;;;;10.13;8.45;;;-0.90;95.20;;;;;;5021498;28;20025;-73
2022/03/11 04:52:11;;;;;;;14.60;10.93;;;-1.00;95.30;;;;;;5018218;28;20120;-75
2022/03/11 04:54:37;;;;;;;11.40;10.15;;;-0.90;95.70;;;;;;5022689;28;20032;-74
2022/03/11 04:57:03;;;;;;;12.23;9.70;;;-0.90;95.90;;;;;;5025243;28;20152;-75
2022/03/11 04:59:28;;;;;;;12.10;8.38;;;-0.90;95.60;;;;;;5020928;28;20472;-76
2022/03/11 05:01:54;;;;;;;10.20;8.32;;;-1.00;95.20;;;;;;5015760;28;20029;-74
2022/03/11 05:04:19;;;;;;;10.88;9.00;;;-1.10;95.40;;;;;;5015663;28;20022;-74
2022/03/11 05:06:45;;;;;;;10.38;8.63;;;-1.20;96.10;;;;;;5031802;28;20022;-75
2022/03/11 05:09:10;;;;;;;10.88;8.70;;;-1.20;96.00;;;;;;5026823;28;20060;-75
2022/03/11 05:11:37;;;;;;;11.25;9.35;;;-1.30;96.40;;;;;;5023359;28;20041;-75
2022/03/11 05:14:03;;;;;;;10.77;8.95;;;-1.50;96.50;;;;;;5029849;28;20026;-72
2022/03/11 05:16:28;;;;;;;10.38;9.15;;;-1.40;96.80;;;;;;5018345;28;20018;-75
2022/03/11 05:18:54;;;;;;;10.93;8.65;;;-1.50;97.00;;;;;;5026443;28;20048;-76
2022/03/11 05:21:20;;;;;;;9.73;8.32;;;-1.80;96.70;;;;;;5023530;28;20040;-76
2022/03/11 05:23:46;;;;;;;11.60;8.45;;;-1.30;95.50;;;;;;5030051;28;20069;-76
2022/03/11 05:26:24;;;;;;;10.75;8.05;;;-1.40;96.00;;;;;;5018186;28;20441;-75
2022/03/11 05:29:00;;;;;;;11.75;9.05;;;-1.30;95.70;;;;;;5028194;28;20080;-76
2022/03/11 05:31:26;;;;;;;10.98;8.55;;;-1.40;96.10;;;;;;5018624;28;20037;-74
2022/03/11 05:33:52;;;;;;;15.48;10.52;;;-1.50;96.40;;;;;;5029479;28;20504;-74
2022/03/11 05:36:18;;;;;;;13.15;11.50;;;-1.50;96.20;;;;;;5024668;28;20120;-74
2022/03/11 05:38:44;;;;;;;12.70;9.27;;;-1.60;96.40;;;;;;5026720;28;20357;-74
2022/03/11 05:41:10;;;;;;;11.95;10.13;;;-1.60;96.50;;;;;;5031296;28;20084;-75
2022/03/11 05:43:36;;;;;;;11.93;8.82;;;-1.40;96.20;;;;;;5027744;28;20033;-77
2022/03/11 05:46:03;;;;;;;12.02;9.13;;;-1.30;95.70;;;;;;5031367;28;20400;-75
2022/03/11 05:48:28;;;;;;;11.40;8.27;;;-1.10;95.00;;;;;;5018044;28;20553;-75
2022/03/11 05:50:54;;;;;;;10.07;8.68;;;-1.00;95.00;;;;;;5017877;28;20029;-74
2022/03/11 05:53:19;;;;;;;15.90;11.38;;;-0.90;94.70;;;;;;5049941;28;20029;-74
2022/03/11 05:55:45;;;;;;;13.05;10.63;;;-0.90;94.40;;;;;;5031327;28;20037;-74
2022/03/11 05:58:10;;;;;;;13.60;11.23;;;-0.90;94.90;;;;;;5028396;28;20107;-75
2022/03/11 06:00:36;;;;;;;12.10;10.32;;;-0.90;94.60;;;;;;5019333;28;20097;-74
2022/03/11 06:03:01;;;;;;;13.40;9.07;;;-0.90;94.50;;;;;;5028173;28;20021;-75
2022/03/11 06:05:27;;;;;;;10.27;9.05;;;-0.90;94.50;;;;;;5024372;28;20036;-74
2022/03/11 06:07:52;;;;;;;10.45;8.90;;;-0.90;94.50;;;;;;5026178;28;20030;-75
2022/03/11 06:10:18;;;;;;;11.52;9.10;;;-0.80;94.20;;;;;;5030987;28;20040;-74
2022/03/11 06:12:43;;;;;;;12.80;8.73;;;-0.90;94.10;;;;;;5029328;28;20033;-74
2022/03/11 06:15:14;;;;;;;10.35;8.70;;;-0.90;94.50;;;;;;5016858;28;20720;-74
2022/03/11 06:17:40;;;;;;;10.07;8.23;;;-0.90;94.60;;;;;;5013536;28;20054;-74
2022/03/11 06:20:08;;;;;;;10.95;8.50;;;-0.80;94.50;;;;;;5028063;28;20451;-74
2022/03/11 06:22:37;;;;;;;11.15;8.80;;;-0.70;94.80;;;;;;5049617;28;20112;-74
2022/03/11 06:25:03;;;;;;;11.52;8.20;;;-0.60;94.40;;;;;;5020857;28;20443;-74
2022/03/11 06:27:29;;;;;;;11.57;8.55;;;-0.60;94.50;;;;;;5021129;28;20120;-74
2022/03/11 06:29:55;;;;;;;10.70;8.95;;;-0.50;94.30;;;;;;5046118;28;20626;-75
2022/03/11 06:32:20;;;;;;;10.68;8.70;;;-0.50;94.30;;;;;;5014699;28;20484;-74
2022/03/11 06:34:48;;;;;;;12.35;8.77;;;-0.40;94.20;;;;;;5019370;28;20101;-75
2022/03/11 06:37:14;;;;;;;10.48;7.95;;;-0.30;94.00;;;;;;5022531;28;20093;-76
2022/03/11 06:39:40;;;;;;;11.98;8.10;;;-0.20;93.80;;;;;;5027340;28;20104;-76
2022/03/11 06:42:05;;;;;;;10.07;8.45;;;-0.20;93.80;;;;;;5049312;28;20120;-76
2022/03/11 06:44:31;;;;;;;11.95;8.23;;;-0.10;93.60;;;;;;5014342;28;20060;-76
2022/03/11 06:46:57;;;;;;;10.30;8.57;;;0.00;93.40;;;;;;5027099;28;20053;-77
2022/03/11 06:49:23;;;;;;;10.20;8.35;;;0.10;93.50;;;;;;5020783;28;20518;-76
2022/03/11 06:51:48;;;;;;;10.13;7.38;;;0.10;93.30;;;;;;5019741;28;20037;-76
2022/03/11 06:54:14;;;;;;;11.63;8.57;;;0.10;93.00;;;;;;5026175;28;20030;-76
2022/03/11 06:56:40;;;;;;;11.10;8.43;;;0.20;93.20;;;;;;5026592;28;20095;-76
2022/03/11 06:59:06;;;;;;;9.88;7.88;;;0.30;92.70;;;;;;5020438;28;20025;-76
2022/03/11 07:01:31;;;;;;;11.82;8.20;;;0.40;92.80;;;;;;5019669;28;20030;-75
2022/03/11 07:03:57;;;;;;;10.75;7.55;;;0.40;92.60;;;;;;5045815;28;20471;-76
2022/03/11 07:06:23;;;;;;;10.63;8.02;;;0.50;92.40;;;;;;5025998;28;20045;-75
2022/03/11 07:08:48;;;;;;;10.70;8.68;;;0.50;92.40;;;;;;5020157;28;20033;-76
2022/03/11 07:11:14;;;;;;;9.20;8.13;;;0.50;92.60;;;;;;5021392;28;20384;-77
2022/03/11 07:13:39;;;;;;;9.38;8.10;;;0.60;92.10;;;;;;5027023;28;20109;-73
2022/03/11 07:16:06;;;;;;;9.77;7.93;;;0.70;92.10;;;;;;5025368;28;20036;-75
2022/03/11 07:18:31;;;;;;;9.68;8.05;;;0.70;92.10;;;;;;5020082;28;20052;-75
2022/03/11 07:20:57;;;;;;;9.60;8.00;;;0.80;91.60;;;;;;5021068;28;20064;-75
2022/03/11 07:23:23;;;;;;;11.18;8.18;;;0.80;91.80;;;;;;5026874;28;20072;-74
2022/03/11 07:25:49;;;;;;;10.00;8.55;;;0.80;91.50;;;;;;5013020;28;20072;-74
2022/03/11 07:28:14;;;;;;;10.45;8.27;;;0.90;91.30;;;;;;5014886;28;20387;-75
2022/03/11 07:30:40;;;;;;;10.50;8.05;;;1.00;91.10;;;;;;5012781;28;20030;-75
2022/03/11 07:33:07;;;;;;;14.00;8.13;;;1.10;91.20;;;;;;5013402;28;20512;-74
2022/03/11 07:35:33;;;;;;;10.75;8.13;;;1.20;91.20;;;;;;5013337;28;20076;-75
2022/03/11 07:37:59;;;;;;;10.75;8.50;;;1.20;91.10;;;;;;5045069;28;20022;-75
2022/03/11 07:40:24;;;;;;;9.77;8.23;;;1.20;90.90;;;;;;5014892;28;20033;-74
2022/03/11 07:42:50;;;;;;;12.05;8.70;;;1.40;91.30;;;;;;5012088;28;20030;-75
2022/03/11 07:45:16;;;;;;;10.43;8.27;;;1.40;90.80;;;;;;5011088;28;20045;-75
2022/03/11 07:47:42;;;;;;;10.52;7.72;;;1.50;90.50;;;;;;5012060;28;20025;-74
2022/03/11 07:50:10;;;;;;;12.68;8.02;;;1.60;90.50;;;;;;5012773;28;20018;-74
2022/03/11 07:52:37;;;;;;;11.65;8.85;;;1.60;90.10;;;;;;5018441;28;20033;-74
2022/03/11 07:55:07;;;;;;;9.93;8.20;;;1.80;90.20;;;;;;5019509;28;20039;-76
2022/03/11 07:57:35;;;;;;;13.07;8.95;;;1.80;90.10;;;;;;5019335;28;20029;-76
2022/03/11 08:00:03;;;;;;;9.48;7.55;;;1.90;90.00;;;;;;5018837;28;20105;-76
2022/03/11 08:02:29;;;;;;;9.82;7.82;;;2.00;89.60;;;;;;5025591;28;20096;-76
2022/03/11 08:04:55;;;;;;;10.75;8.18;;;2.10;89.70;;;;;;5026289;28;20022;-77
2022/03/11 08:07:22;;;;;;;9.63;7.70;;;2.10;89.60;;;;;;5019472;28;20048;-75
2022/03/11 08:09:47;;;;;;;10.50;7.97;;;2.20;90.00;;;;;;5019119;28;20025;-75
2022/03/11 08:12:13;;;;;;;12.52;8.23;;;2.30;90.00;;;;;;5018081;28;20100;-74
2022/03/11 08:14:39;;;;;;;11.15;7.40;;;2.40;88.70;;;;;;5019053;28;20065;-72
2022/03/11 08:17:06;;;;;;;11.63;7.82;;;2.30;88.10;;;;;;5025353;28;20029;-74
2022/03/11 08:19:31;;;;;;;11.77;8.65;;;2.40;88.30;;;;;;5012627;28;20022;-72
2022/03/11 08:21:57;;;;;;;9.02;7.65;;;2.50;87.50;;;;;;5020528;28;20379;-76
2022/03/11 08:24:22;;;;;;;10.80;7.65;;;2.50;87.90;;;;;;5012316;28;20022;-75
2022/03/11 08:26:48;;;;;;;9.48;7.90;;;2.60;87.50;;;;;;5012526;28;20084;-75
2022/03/11 08:29:15;;;;;;;10.63;8.10;;;2.60;86.20;;;;;;5025576;28;20100;-75
2022/03/11 08:31:40;;;;;;;12.05;7.60;;;2.60;87.50;;;;;;5024076;28;20067;-76
2022/03/11 08:34:06;;;;;;;10.48;7.90;;;2.70;88.50;;;;;;5018874;28;20092;-76
2022/03/11 08:36:32;;;;;;;11.65;8.27;;;2.90;88.70;;;;;;5004318;28;20038;-76
2022/03/11 08:38:58;;;;;;;11.93;7.95;;;2.90;87.70;;;;;;5016816;28;20057;-75
2022/03/11 08:41:25;;;;;;;11.13;7.70;;;2.90;87.10;;;;;;5043805;28;20018;-76
2022/03/11 08:43:51;;;;;;;9.75;7.30;;;3.00;86.80;;;;;;5024605;28;20375;-75
2022/03/11 08:46:17;;;;;;;9.90;7.13;;;3.10;85.90;;;;;;5019736;28;20033;-75
2022/03/11 08:48:43;;;;;;;9.30;6.97;;;3.30;85.70;;;;;;5017916;28;20030;-75
2022/03/11 08:51:09;;;;;;;11.82;8.10;;;3.10;85.30;;;;;;5018974;28;20025;-75
2022/03/11 08:53:35;;;;;;;10.13;7.50;;;3.20;85.20;;;;;;5016530;28;20033;-77
2022/03/11 08:56:01;;;;;;;10.00;7.55;;;3.30;82.30;;;;;;5023254;28;20025;-75
2022/03/11 08:58:26;;;;;;;9.18;7.38;;;3.20;82.00;;;;;;5025035;28;20509;-76
2022/03/11 09:00:52;;;;;;;8.45;7.43;;;3.30;84.00;;;;;;5017613;28;20028;-75
2022/03/11 09:03:18;;;;;;;8.43;7.35;;;3.60;83.70;;;;;;5017935;28;20018;-76
2022/03/11 09:05:43;;;;;;;10.80;7.28;;;3.80;84.20;;;;;;5011954;28;20030;-74
2022/03/11 09:08:09;;;;;;;9.45;6.93;;;4.00;82.70;;;;;;5044350;28;20073;-75
2022/03/11 09:10:35;;;;;;;10.45;7.10;;;4.00;83.40;;;;;;5024301;28;20029;-74
2022/03/11 09:13:01;;;;;;;8.75;6.50;;;4.00;82.40;;;;;;5024959;28;20030;-74
2022/03/11 09:15:27;;;;;;;8.68;6.82;;;4.20;82.20;;;;;;5018920;28;20032;-75
2022/03/11 09:17:53;;;;;;;11.25;6.80;;;4.50;80.10;;;;;;5017453;28;20022;-74
2022/03/11 09:20:19;;;;;;;8.55;6.75;;;4.40;79.80;;;;;;5011442;28;20022;-75
2022/03/11 09:22:45;;;;;;;8.43;6.20;;;4.50;78.90;;;;;;5011516;28;20388;-75
2022/03/11 09:25:12;;;;;;;8.85;6.78;;;4.60;79.10;;;;;;5027576;28;20029;-73
2022/03/11 09:27:39;;;;;;;8.10;6.28;;;4.50;78.30;;;;;;5011536;28;20026;-74
2022/03/11 09:30:07;;;;;;;7.90;6.60;;;4.70;79.30;;;;;;5011249;28;20034;-74
2022/03/11 09:32:34;;;;;;;9.82;6.32;;;4.60;77.30;;;;;;5011374;28;20104;-74
2022/03/11 09:34:59;;;;;;;9.48;7.15;;;4.70;76.90;;;;;;5011527;28;20026;-73
2022/03/11 09:37:26;;;;;;;8.95;5.93;;;4.60;77.60;;;;;;5046562;28;20040;-73
2022/03/11 09:39:52;;;;;;;8.80;6.43;;;4.60;75.90;;;;;;5023623;28;20022;-73
2022/03/11 09:42:18;;;;;;;11.85;6.60;;;4.70;75.90;;;;;;5025435;28;20021;-73
2022/03/11 09:44:50;;;;;;;7.22;6.07;;;4.70;75.50;;;;;;5022078;28;20026;-73
2022/03/11 09:47:16;;;;;;;8.07;6.15;;;4.70;75.90;;;;;;5010061;28;20129;-74
2022/03/11 09:49:42;;;;;;;8.55;5.97;;;5.10;76.20;;;;;;5021465;28;20068;-74
2022/03/11 09:52:09;;;;;;;7.72;6.32;;;5.10;74.50;;;;;;5019344;28;20076;-74
2022/03/11 09:54:34;;;;;;;7.75;6.07;;;5.20;74.60;;;;;;5015117;28;20029;-74
2022/03/11 09:57:00;;;;;;;9.52;6.10;;;5.20;73.20;;;;;;5016975;28;20034;-74
2022/03/11 09:59:26;;;;;;;8.18;6.13;;;5.40;74.40;;;;;;5026490;28;20108;-74
2022/03/11 10:01:53;;;;;;;8.18;5.70;;;5.60;74.00;;;;;;5047855;28;20026;-75
2022/03/11 10:04:19;;;;;;;12.07;5.75;;;5.50;71.20;;;;;;5015158;28;20101;-75
2022/03/11 10:06:47;;;;;;;8.63;5.72;;;5.50;70.50;;;;;;5044551;28;20112;-75
2022/03/11 10:09:18;;;;;;;8.63;5.95;;;5.60;71.20;;;;;;5025600;28;20480;-75
2022/03/11 10:11:53;;;;;;;9.10;5.55;;;5.70;70.00;;;;;;5046460;28;20026;-75
2022/03/11 10:14:27;;;;;;;6.90;4.90;;;5.80;71.60;;;;;;5049999;28;20567;-75
2022/03/11 10:16:53;;;;;;;10.85;6.45;;;5.80;69.70;;;;;;5021495;28;20026;-74
2022/03/11 10:19:20;;;;;;;5.85;5.15;;;6.00;71.00;;;;;;5033518;28;20036;-76
2022/03/11 10:21:46;;;;;;;6.20;5.10;;;6.00;69.00;;;;;;5020683;28;20472;-76
2022/03/11 10:24:15;;;;;;;6.35;5.03;;;6.10;68.60;;;;;;5020585;28;20100;-77
2022/03/11 10:26:41;;;;;;;7.13;5.15;;;6.20;67.80;;;;;;5018947;28;20033;-77
2022/03/11 10:29:10;;;;;;;7.88;5.45;;;6.20;67.60;;;;;;5028107;28;20061;-77
2022/03/11 10:31:42;;;;;;;7.85;5.10;;;6.30;68.70;;;;;;5019654;28;20510;-75
2022/03/11 10:34:14;;;;;;;8.07;5.40;;;6.40;67.90;;;;;;5019804;28;20056;-75
2022/03/11 10:37:07;;;;;;;8.48;5.15;;;6.50;67.80;;;;;;5026422;28;20474;-74
2022/03/11 10:39:44;;;;;;;8.07;4.47;;;6.60;67.50;;;;;;5012684;28;20042;-75
2022/03/11 10:42:12;;;;;;;5.72;4.88;;;6.70;65.10;;;;;;5026552;28;20104;-74
2022/03/11 10:44:38;;;;;;;6.78;5.13;;;6.80;64.40;;;;;;5013036;28;20021;-75
2022/03/11 10:47:20;;;;;;;8.05;4.88;;;6.90;65.60;;;;;;5014655;28;20125;-75
2022/03/11 10:49:50;;;;;;;7.28;4.90;;;7.00;64.30;;;;;;5033875;28;20454;-76
2022/03/11 10:52:56;;;;;;;9.88;5.68;;;7.20;64.90;;;;;;5020452;28;20030;-75
2022/03/11 10:55:26;;;;;;;6.10;4.75;;;7.30;65.50;;;;;;5004448;28;20057;-75
2022/03/11 10:57:56;;;;;;;9.32;5.18;;;7.40;64.30;;;;;;5013615;28;20057;-75
2022/03/11 11:00:34;;;;;;;7.38;4.45;;;7.40;65.10;;;;;;5026805;28;20033;-74
2022/03/11 11:03:06;;;;;;;7.28;4.70;;;7.30;61.60;;;;;;5025522;28;20386;-75
2022/03/11 11:05:32;;;;;;;8.32;5.43;;;7.40;61.50;;;;;;5018996;28;20029;-75
2022/03/11 11:08:00;;;;;;;7.85;5.03;;;7.30;61.80;;;;;;5031416;28;20025;-76
2022/03/11 11:10:27;;;;;;;7.63;4.82;;;7.40;61.50;;;;;;5018485;28;20060;-76
2022/03/11 11:12:54;;;;;;;11.52;4.95;;;7.40;61.10;;;;;;5026957;28;20035;-76
2022/03/11 11:15:21;;;;;;;7.35;5.00;;;7.60;63.30;;;;;;5017849;28;20029;-76
2022/03/11 11:17:51;;;;;;;6.78;4.90;;;7.70;62.80;;;;;;5019285;28;20029;-75
2022/03/11 11:20:28;;;;;;;8.65;4.88;;;7.80;61.20;;;;;;5007574;28;20048;-75
2022/03/11 11:22:54;;;;;;;8.02;5.35;;;8.00;61.70;;;;;;5016445;28;20076;-75
2022/03/11 11:25:22;;;;;;;7.82;5.00;;;7.90;60.50;;;;;;5011964;28;20495;-75
2022/03/11 11:27:48;;;;;;;8.70;5.40;;;7.80;60.90;;;;;;5026430;28;20561;-75
2022/03/11 11:30:19;;;;;;;8.40;5.20;;;8.00;61.40;;;;;;5013091;28;20457;-75
2022/03/11 11:32:46;;;;;;;7.43;5.47;;;8.00;61.30;;;;;;5012063;28;20022;-75
2022/03/11 11:35:35;;;;;;;8.32;5.40;;;8.00;60.40;;;;;;5048573;28;20175;-75
2022/03/11 11:38:07;;;;;;;8.68;5.50;;;8.20;61.00;;;;;;5028323;28;20076;-75
2022/03/11 11:40:38;;;;;;;7.72;5.53;;;8.20;61.30;;;;;;5019521;28;20075;-75
2022/03/11 11:43:28;;;;;;;9.88;5.38;;;8.10;61.00;;;;;;5024913;28;20108;-75
2022/03/11 11:46:02;;;;;;;8.70;5.90;;;8.20;61.80;;;;;;5034720;28;20017;-75
2022/03/11 11:48:42;;;;;;;7.28;5.32;;;8.20;60.10;;;;;;5019477;28;20452;-75
2022/03/11 11:51:31;;;;;;;8.30;5.97;;;8.20;60.90;;;;;;4993408;28;20481;-76
2022/03/11 11:54:08;;;;;;;8.13;6.25;;;8.20;60.90;;;;;;5015768;28;20335;-76
2022/03/11 11:57:00;;;;;;;13.00;6.85;;;8.20;61.20;;;;;;5048102;28;20022;-75
2022/03/11 11:59:32;;;;;;;7.22;5.60;;;8.40;61.00;;;;;;5009773;28;20518;-75
2022/03/11 12:01:59;;;;;;;9.98;6.47;;;8.70;60.60;;;;;;5017972;28;20112;-75
2022/03/11 12:04:34;;;;;;;9.32;6.57;;;9.20;59.80;;;;;;5022190;28;20029;-76
2022/03/11 12:07:14;;;;;;;9.03;6.10;;;9.60;59.90;;;;;;5044467;28;20025;-76
2022/03/11 12:14:58;;;;;;;7.10;5.55;;;11.60;58.80;;;;;;5018749;28;20113;-76
2022/03/11 12:17:40;;;;;;;8.43;5.60;;;11.60;57.40;;;;;;5022492;28;20053;-77
2022/03/11 12:20:37;;;;;;;9.85;5.90;;;12.00;56.40;;;;;;5035075;28;20056;-77
2022/03/11 12:23:08;;;;;;;12.05;5.55;;;12.10;57.00;;;;;;5019378;28;20140;-76
2022/03/11 12:25:45;;;;;;;6.63;5.68;;;12.70;57.40;;;;;;5006827;28;20045;-76
2022/03/11 12:28:18;;;;;;;9.45;5.75;;;12.90;55.40;;;;;;5012328;28;20029;-76
2022/03/11 12:30:46;;;;;;;10.48;6.30;;;13.00;55.60;;;;;;5012154;28;20419;-76
2022/03/11 12:33:15;;;;;;;7.30;5.38;;;13.00;54.90;;;;;;5044385;28;20030;-76
2022/03/11 12:35:42;;;;;;;8.98;5.85;;;13.30;54.80;;;;;;5025873;28;20064;-77
2022/03/11 12:38:13;;;;;;;7.32;5.85;;;13.40;55.00;;;;;;5018842;28;20025;-76
2022/03/11 12:40:40;;;;;;;7.95;6.28;;;13.70;54.20;;;;;;5025490;28;20074;-77
2022/03/11 12:43:08;;;;;;;7.95;5.97;;;13.20;54.40;;;;;;5019741;28;20040;-76
2022/03/11 12:45:37;;;;;;;7.90;6.35;;;13.10;54.50;;;;;;5018947;28;20092;-77
2022/03/11 12:48:04;;;;;;;8.07;6.30;;;13.10;53.90;;;;;;5023279;28;20547;-77
2022/03/11 12:50:30;;;;;;;9.38;6.30;;;14.20;54.80;;;;;;5025251;28;20056;-77
2022/03/11 12:52:57;;;;;;;7.75;6.25;;;14.00;54.20;;;;;;5020953;28;20049;-76